createdAt,value
2018-09-16T08:40:55.055Z,97658.31
2018-09-16T08:43:24.184Z,97662.15
2018-09-16T08:45:55.544Z,97668.16
2018-09-16T08:48:24.782Z,97670.70
2018-09-16T08:50:58.648Z,97666.84
2018-09-16T08:53:27.854Z,97661.69
2018-09-16T08:55:58.968Z,97656.11
2018-09-16T08:58:30.379Z,97652.63
2018-09-16T09:00:59.436Z,97653.42
2018-09-16T09:03:28.625Z,97650.40
2018-09-16T09:05:58.308Z,97646.05
2018-09-16T09:08:27.675Z,97642.17
2018-09-16T09:10:57.241Z,97637.36
2018-09-16T09:13:30.714Z,97641.12
2018-09-16T09:16:00.301Z,97642.34
2018-09-16T09:18:29.590Z,97637.11
2018-09-16T09:20:58.768Z,97630.20
2018-09-16T09:23:28.353Z,97629.69
2018-09-16T09:25:57.856Z,97622.74
2018-09-16T09:28:27.807Z,97624.40
2018-09-16T09:30:56.962Z,97624.73
2018-09-16T09:33:26.179Z,97627.56
2018-09-16T09:35:55.364Z,97622.37
2018-09-16T09:38:25.308Z,97623.16
2018-09-16T09:40:54.758Z,97619.59
2018-09-16T09:43:24.056Z,97617.77
2018-09-16T09:45:53.278Z,97617.67
2018-09-16T09:48:22.514Z,97621.39
2018-09-16T09:50:51.826Z,97627.76
2018-09-16T09:53:21.107Z,97614.02
2018-09-16T09:55:50.251Z,97611.28
2018-09-16T09:58:19.451Z,97606.03
2018-09-16T10:00:52.162Z,97596.95
2018-09-16T10:03:23.864Z,97595.60
2018-09-16T10:05:55.795Z,97591.23
2018-09-16T10:08:26.654Z,97594.50
2018-09-16T10:10:56.237Z,97589.67
2018-09-16T10:13:25.411Z,97589.95
2018-09-16T10:15:54.672Z,97587.33
2018-09-16T10:18:25.787Z,97577.39
2018-09-16T10:20:57.300Z,97584.60
2018-09-16T10:23:26.542Z,97584.48
2018-09-16T10:25:55.805Z,97579.20
2018-09-16T10:28:25.000Z,97577.42
2018-09-16T10:30:54.216Z,97583.77
2018-09-16T10:33:23.534Z,97581.52
2018-09-16T10:35:53.017Z,97579.31
2018-09-16T10:38:22.704Z,97574.56
2018-09-16T10:40:52.390Z,97570.63
2018-09-16T10:43:21.645Z,97566.77
2018-09-16T10:45:50.824Z,97574.78
2018-09-16T10:48:20.111Z,97565.66
2018-09-16T10:50:51.533Z,97561.33
2018-09-16T10:53:28.993Z,97562.91
2018-09-16T10:55:58.213Z,97554.92
2018-09-16T10:58:27.519Z,97550.02
2018-09-16T11:00:56.799Z,97543.50
2018-09-16T11:03:26.090Z,97543.31
2018-09-16T11:05:55.301Z,97543.98
2018-09-16T11:08:24.485Z,97544.80
2018-09-16T11:10:54.096Z,97542.64
2018-09-16T11:13:23.250Z,97541.31
2018-09-16T11:15:52.577Z,97538.19
2018-09-16T11:18:23.591Z,97537.64
2018-09-16T11:20:53.630Z,97532.43
2018-09-16T11:23:24.794Z,97538.45
2018-09-16T11:25:53.958Z,97530.72
2018-09-16T11:28:23.910Z,97527.93
2018-09-16T11:30:56.120Z,97522.56
2018-09-16T11:33:25.418Z,97523.30
2018-09-16T11:35:54.624Z,97515.24
2018-09-16T11:38:23.808Z,97507.97
2018-09-16T11:40:53.001Z,97500.33
2018-09-16T11:43:25.980Z,97491.55
2018-09-16T11:45:56.032Z,97496.23
2018-09-16T11:48:25.270Z,97490.93
2018-09-16T11:51:00.868Z,97491.57
2018-09-16T11:53:30.582Z,97490.36
2018-09-16T11:56:00.361Z,97489.03
2018-09-16T11:58:30.435Z,97482.23
2018-09-16T12:01:02.890Z,97485.68
2018-09-16T12:03:32.186Z,97482.14
2018-09-16T12:06:02.501Z,97482.87
2018-09-16T12:08:33.918Z,97484.38
2018-09-16T12:11:03.216Z,97486.79
2018-09-16T12:13:34.420Z,97479.85
2018-09-16T12:16:05.589Z,97482.34
2018-09-16T12:18:35.303Z,97477.98
2018-09-16T12:21:05.850Z,97476.94
2018-09-16T12:23:35.080Z,97473.23
2018-09-16T12:26:05.047Z,97468.79
2018-09-16T12:28:40.421Z,97457.39
2018-09-16T12:31:09.678Z,97451.25
2018-09-16T12:33:41.962Z,97459.23
2018-09-16T12:36:12.032Z,97461.28
2018-09-16T12:38:42.076Z,97456.33
2018-09-16T12:41:11.284Z,97458.20
2018-09-16T12:43:41.414Z,97449.63
2018-09-16T12:46:10.680Z,97456.48
2018-09-16T12:48:44.007Z,97450.25
2018-09-16T12:51:13.074Z,97453.38
2018-09-16T12:53:42.220Z,97453.22
2018-09-16T12:56:11.316Z,97439.09
2018-09-16T12:58:40.426Z,97440.50
2018-09-16T13:01:09.555Z,97442.98
2018-09-16T13:03:38.986Z,97445.31
2018-09-16T13:06:09.115Z,97442.70
2018-09-16T13:08:39.103Z,97444.74
2018-09-16T13:11:09.218Z,97444.64
2018-09-16T13:13:39.142Z,97442.38
2018-09-16T13:16:09.245Z,97432.78
2018-09-16T13:18:39.144Z,97439.41
2018-09-16T13:21:09.263Z,97430.39
2018-09-16T13:23:39.183Z,97433.63
2018-09-16T13:26:09.313Z,97419.13
2018-09-16T13:28:39.833Z,97421.67
2018-09-16T13:31:09.272Z,97417.97
2018-09-16T13:38:49.715Z,97410.25
2018-09-16T13:41:18.969Z,97404.52
2018-09-16T13:43:50.883Z,97415.48
2018-09-16T13:46:21.916Z,97406.55
2018-09-16T13:48:51.193Z,97405.14
2018-09-16T13:51:20.659Z,97399.41
2018-09-16T13:53:49.886Z,97390.70
2018-09-16T13:56:19.209Z,97390.89
2018-09-16T13:58:48.565Z,97392.30
2018-09-16T14:01:17.735Z,97391.45
2018-09-16T14:03:48.491Z,97386.51
2018-09-16T14:06:21.396Z,97378.75
2018-09-16T14:08:55.449Z,97380.88
2018-09-16T14:11:24.812Z,97379.20
2018-09-16T14:13:55.347Z,97379.31
2018-09-16T14:16:26.290Z,97371.53
2018-09-16T14:18:55.519Z,97373.03
2018-09-16T14:21:25.776Z,97362.84
2018-09-16T14:23:56.935Z,97367.56
2018-09-16T14:26:27.339Z,97368.41
2018-09-16T14:28:58.805Z,97366.72
2018-09-16T14:31:30.280Z,97365.13
2018-09-16T14:34:02.270Z,97365.89
2018-09-16T14:36:32.524Z,97368.54
2018-09-16T14:39:03.905Z,97361.09
2018-09-16T14:41:39.645Z,97358.04
2018-09-16T14:44:09.302Z,97352.77
2018-09-16T14:46:39.857Z,97349.13
2018-09-16T14:49:09.089Z,97346.11
2018-09-16T14:51:39.542Z,97343.24
2018-09-16T14:54:10.765Z,97341.27
2018-09-16T14:56:40.627Z,97335.44
2018-09-16T14:59:10.692Z,97339.60
2018-09-16T15:01:41.410Z,97340.94
2018-09-16T15:04:11.964Z,97336.92
2018-09-16T15:06:46.159Z,97336.52
2018-09-16T15:09:16.429Z,97338.33
2018-09-16T15:11:46.088Z,97340.52
2018-09-16T15:14:15.343Z,97336.37
2018-09-16T15:16:45.053Z,97332.44
2018-09-16T15:19:22.108Z,97331.28
2018-09-16T15:21:54.644Z,97332.84
2018-09-16T15:29:42.327Z,97332.08
2018-09-16T15:32:14.574Z,97324.66
2018-09-16T15:34:44.130Z,97327.99
2018-09-16T15:37:15.795Z,97324.28
2018-09-16T15:39:46.402Z,97325.66
2018-09-16T15:42:15.584Z,97327.81
2018-09-16T15:44:45.189Z,97320.38
2018-09-16T15:47:16.530Z,97320.73
2018-09-16T15:49:46.048Z,97321.98
2018-09-16T15:52:15.483Z,97319.23
2018-09-16T15:54:47.759Z,97321.68
2018-09-16T15:57:17.018Z,97329.00
2018-09-16T15:59:46.551Z,97325.00
2018-09-16T16:02:15.735Z,97322.23
2018-09-16T16:04:46.599Z,97327.81
2018-09-16T16:07:15.759Z,97325.46
2018-09-16T16:09:47.963Z,97327.75
2018-09-16T16:12:19.461Z,97325.42
2018-09-16T16:14:49.004Z,97324.46
2018-09-16T16:17:18.290Z,97331.91
2018-09-16T16:19:48.004Z,97329.45
2018-09-16T16:22:17.182Z,97326.67
2018-09-16T16:24:46.796Z,97326.48
2018-09-16T16:27:16.076Z,97328.88
2018-09-16T16:29:45.617Z,97329.97
2018-09-16T16:32:14.839Z,97332.36
2018-09-16T16:34:44.377Z,97334.80
2018-09-16T16:37:13.711Z,97332.83
2018-09-16T16:39:44.882Z,97329.66
2018-09-16T16:42:14.127Z,97335.83
2018-09-16T16:44:43.698Z,97337.73
2018-09-16T16:47:13.156Z,97342.31
2018-09-16T16:49:42.662Z,97340.00
2018-09-16T16:52:12.410Z,97342.75
2018-09-16T16:54:42.344Z,97344.73
2018-09-16T16:57:12.536Z,97350.55
2018-09-16T16:59:42.419Z,97346.94
2018-09-16T17:02:12.054Z,97347.23
2018-09-16T17:04:42.655Z,97348.77
2018-09-16T17:07:12.167Z,97348.52
2018-09-16T17:09:42.530Z,97351.41
2018-09-16T17:12:12.457Z,97339.64
2018-09-16T17:14:44.372Z,97339.88
2018-09-16T17:17:13.763Z,97343.56
2018-09-16T17:19:43.381Z,97340.36
2018-09-16T17:22:12.667Z,97334.56
2018-09-16T17:24:42.693Z,97336.52
2018-09-16T17:27:13.571Z,97333.25
2018-09-16T17:29:43.241Z,97339.47
2018-09-16T17:32:12.826Z,97340.11
2018-09-16T17:34:43.905Z,97339.85
2018-09-16T17:37:13.821Z,97350.34
2018-09-16T17:39:44.027Z,97356.48
2018-09-16T17:42:13.410Z,97360.55
2018-09-16T17:44:44.861Z,97364.55
2018-09-16T17:47:14.129Z,97374.66
2018-09-16T17:49:44.833Z,97377.04
2018-09-16T17:52:15.321Z,97379.38
2018-09-16T17:54:45.833Z,97388.52
2018-09-16T17:57:15.596Z,97393.02
2018-09-16T17:59:46.306Z,97397.89
2018-09-16T18:02:15.762Z,97402.75
2018-09-16T18:04:47.749Z,97403.75
2018-09-16T18:07:17.606Z,97405.67
2018-09-16T18:09:48.036Z,97403.26
2018-09-16T18:15:20.959Z,97411.66
2018-09-16T18:17:50.900Z,97413.05
2018-09-16T18:20:20.580Z,97414.92
2018-09-16T18:22:50.566Z,97411.52
2018-09-16T18:25:20.495Z,97408.17
2018-09-16T18:27:50.224Z,97403.98
2018-09-16T18:30:20.098Z,97413.00
2018-09-16T18:32:50.131Z,97408.38
2018-09-16T18:35:20.191Z,97410.13
2018-09-16T18:37:49.821Z,97415.72
2018-09-16T18:40:21.531Z,97415.78
2018-09-16T18:42:53.874Z,97415.44
2018-09-16T18:45:23.610Z,97415.92
2018-09-16T18:47:53.719Z,97422.86
2018-09-16T18:50:23.510Z,97418.23
2018-09-16T18:52:54.519Z,97425.97
2018-09-16T18:55:24.484Z,97435.92
2018-09-16T18:57:54.743Z,97425.75
2018-09-16T19:00:24.538Z,97435.70
2018-09-16T19:02:54.542Z,97440.94
2018-09-16T19:05:24.846Z,97441.41
2018-09-16T19:07:55.895Z,97449.63
2018-09-16T19:10:25.865Z,97443.64
2018-09-16T19:12:55.956Z,97440.26
2018-09-16T19:15:26.115Z,97440.33
2018-09-16T19:17:59.806Z,97443.39
2018-09-16T19:20:29.649Z,97438.75
2018-09-16T19:23:00.118Z,97428.52
2018-09-16T19:25:30.096Z,97430.70
2018-09-16T19:28:00.289Z,97438.87
2018-09-16T19:30:30.299Z,97437.23
2018-09-16T19:33:00.069Z,97432.97
2018-09-16T19:35:29.876Z,97430.82
2018-09-16T19:37:59.619Z,97438.57
2018-09-16T19:40:29.350Z,97439.46
2018-09-16T19:42:59.088Z,97450.63
2018-09-16T19:45:28.751Z,97446.81
2018-09-16T19:47:58.452Z,97442.21
2018-09-16T19:50:30.813Z,97446.09
2018-09-16T19:53:01.676Z,97443.59
2018-09-16T19:55:32.348Z,97440.23
2018-09-16T19:58:02.101Z,97432.57
2018-09-16T20:00:33.512Z,97432.61
2018-09-16T20:03:04.921Z,97437.75
2018-09-16T20:05:42.397Z,97434.36
2018-09-16T20:08:12.354Z,97429.25
2018-09-16T20:10:43.930Z,97433.52
2018-09-16T20:13:14.497Z,97433.52
2018-09-16T20:15:44.806Z,97439.92
2018-09-16T20:18:14.862Z,97436.52
2018-09-16T20:20:47.361Z,97436.52
2018-09-16T20:23:16.956Z,97449.34
2018-09-16T20:25:46.668Z,97438.70
2018-09-16T20:28:16.104Z,97440.41
2018-09-16T20:43:45.428Z,97443.84
2018-09-16T20:46:14.632Z,97455.92
2018-09-16T20:48:46.157Z,97455.06
2018-09-16T20:51:15.356Z,97453.77
2018-09-16T20:53:47.018Z,97459.31
2018-09-16T20:56:16.280Z,97457.63
2018-09-16T20:58:46.100Z,97456.75
2018-09-16T21:01:17.037Z,97450.32
2018-09-16T21:03:46.829Z,97446.05
2018-09-16T21:06:16.092Z,97446.93
2018-09-16T21:08:49.866Z,97449.93
2018-09-16T21:11:20.646Z,97452.50
2018-09-16T21:13:50.192Z,97456.77
2018-09-16T21:16:20.189Z,97454.20
2018-09-16T21:18:49.394Z,97449.93
2018-09-16T21:21:18.532Z,97453.36
2018-09-16T21:23:47.658Z,97455.06
2018-09-16T21:26:16.935Z,97459.34
2018-09-16T21:28:48.104Z,97470.46
2018-09-16T21:31:17.274Z,97469.20
2018-09-16T21:33:46.869Z,97468.80
2018-09-16T21:36:16.037Z,97466.27
2018-09-16T21:38:45.551Z,97467.97
2018-09-16T21:41:15.133Z,97463.73
2018-09-16T21:43:46.178Z,97469.69
2018-09-16T21:46:15.534Z,97473.11
2018-09-16T21:48:46.289Z,97473.55
2018-09-16T21:51:15.457Z,97472.27
2018-09-16T21:53:45.645Z,97476.11
2018-09-16T21:56:15.247Z,97473.11
2018-09-16T21:58:46.214Z,97464.58
2018-09-16T22:01:15.353Z,97462.02
2018-09-16T22:03:45.677Z,97466.25
2018-09-16T22:06:15.693Z,97464.55
2018-09-16T22:08:45.898Z,97459.40
2018-09-16T22:11:15.356Z,97467.08
2018-09-16T22:13:45.830Z,97465.35
2018-09-16T22:16:15.478Z,97460.20
2018-09-16T22:18:46.918Z,97461.95
2018-09-16T22:21:16.898Z,97458.94
2018-09-16T22:23:46.486Z,97454.23
2018-09-16T22:26:15.932Z,97461.06
2018-09-16T22:28:45.823Z,97461.95
2018-09-16T22:31:16.706Z,97454.25
2018-09-16T22:33:47.453Z,97449.13
2018-09-16T22:36:16.905Z,97454.25
2018-09-16T22:38:46.458Z,97447.00
2018-09-16T22:41:16.988Z,97447.41
2018-09-16T22:43:47.644Z,97448.27
2018-09-16T22:46:16.806Z,97449.14
2018-09-16T22:48:46.126Z,97455.13
2018-09-16T22:51:16.030Z,97455.16
2018-09-16T22:53:47.045Z,97463.69
2018-09-16T22:56:16.286Z,97455.15
2018-09-16T22:58:46.486Z,97456.48
2018-09-16T23:01:17.975Z,97455.64
2018-09-16T23:03:47.459Z,97455.23
2018-09-16T23:06:17.146Z,97454.42
2018-09-16T23:08:53.149Z,97456.17
2018-09-16T23:11:22.496Z,97454.48
2018-09-16T23:13:52.360Z,97444.26
2018-09-16T23:16:21.549Z,97452.79
2018-09-16T23:18:51.253Z,97454.54
2018-09-16T23:21:20.454Z,97457.97
2018-09-16T23:23:50.345Z,97459.69
2018-09-16T23:26:20.312Z,97456.72
2018-09-16T23:28:51.666Z,97455.87
2018-09-16T23:31:20.817Z,97464.00
2018-09-16T23:33:50.324Z,97461.05
2018-09-16T23:36:19.517Z,97456.39
2018-09-16T23:38:50.472Z,97452.12
2018-09-16T23:41:21.293Z,97449.98
2018-09-16T23:43:50.748Z,97446.14
2018-09-16T23:46:19.908Z,97447.83
2018-09-16T23:48:52.168Z,97450.41
2018-09-16T23:51:21.392Z,97455.54
2018-09-16T23:53:50.562Z,97455.98
2018-09-16T23:56:19.731Z,97453.84
2018-09-16T23:58:49.290Z,97455.16
